createdAt,value
2023-08-29T00:01:00.275Z,86.77
2023-08-29T00:03:28.973Z,86.56
2023-08-29T00:06:03.015Z,87.02
2023-08-29T00:08:30.955Z,87.36
2023-08-29T00:10:59.007Z,86.95
2023-08-29T00:13:27.188Z,86.78
2023-08-29T00:15:57.219Z,86.60
2023-08-29T00:18:25.075Z,86.27
2023-08-29T00:20:53.023Z,86.42
2023-08-29T00:23:20.778Z,86.58
2023-08-29T00:25:48.574Z,87.90
2023-08-29T00:28:16.349Z,87.08
2023-08-29T00:30:45.406Z,87.32
2023-08-29T00:33:14.771Z,86.89
2023-08-29T00:35:42.940Z,86.85
2023-08-29T00:38:12.135Z,87.50
2023-08-29T00:40:40.142Z,86.45
2023-08-29T00:43:08.017Z,86.53
2023-08-29T00:45:38.180Z,86.91
2023-08-29T00:48:08.633Z,87.08
2023-08-29T00:50:38.270Z,86.76
2023-08-29T00:53:07.713Z,87.91
2023-08-29T00:55:36.957Z,88.06
2023-08-29T00:58:05.811Z,87.13
2023-08-29T01:00:34.798Z,87.17
2023-08-29T01:03:02.831Z,86.79
2023-08-29T01:05:30.650Z,86.99
2023-08-29T01:08:02.319Z,87.26
2023-08-29T01:10:36.762Z,87.38
2023-08-29T01:13:12.242Z,87.31
2023-08-29T01:15:44.353Z,88.37
2023-08-29T01:18:15.144Z,87.59
2023-08-29T01:20:44.570Z,87.56
2023-08-29T01:23:21.597Z,87.69
2023-08-29T01:25:53.840Z,87.24
2023-08-29T01:28:23.231Z,88.54
2023-08-29T01:30:51.926Z,87.97
2023-08-29T01:33:20.013Z,87.76
2023-08-29T01:35:48.611Z,88.82
2023-08-29T01:38:18.441Z,88.25
2023-08-29T01:40:46.578Z,88.36
2023-08-29T01:43:14.445Z,87.91
2023-08-29T01:45:43.698Z,88.03
2023-08-29T01:48:13.115Z,88.37
2023-08-29T01:50:42.846Z,88.50
2023-08-29T01:53:11.075Z,89.13
2023-08-29T01:55:40.879Z,89.40
2023-08-29T01:58:10.193Z,88.96
2023-08-29T02:00:38.298Z,88.05
2023-08-29T02:03:07.545Z,89.36
2023-08-29T02:05:36.276Z,89.78
2023-08-29T02:08:04.230Z,89.27
2023-08-29T02:10:32.334Z,89.56
2023-08-29T02:13:00.046Z,88.54
2023-08-29T02:15:27.805Z,89.27
2023-08-29T02:17:55.750Z,89.24
2023-08-29T02:20:24.847Z,88.81
2023-08-29T02:22:52.658Z,88.92
2023-08-29T02:25:20.378Z,89.22
2023-08-29T02:27:48.638Z,88.65
2023-08-29T02:30:16.368Z,88.83
2023-08-29T02:32:44.110Z,89.32
2023-08-29T02:35:12.263Z,89.31
2023-08-29T02:37:41.763Z,89.03
2023-08-29T02:40:10.376Z,89.83
2023-08-29T02:42:38.617Z,89.72
2023-08-29T02:45:07.197Z,89.91
2023-08-29T02:47:34.955Z,89.05
2023-08-29T02:50:04.460Z,89.95
2023-08-29T02:52:32.126Z,89.83
2023-08-29T02:55:01.277Z,89.26
2023-08-29T02:57:28.933Z,88.79
2023-08-29T02:59:56.746Z,88.64
2023-08-29T03:02:24.585Z,88.72
2023-08-29T03:04:52.300Z,89.41
2023-08-29T03:07:20.080Z,89.79
2023-08-29T03:09:47.791Z,89.62
2023-08-29T03:12:16.891Z,88.96
2023-08-29T03:14:44.570Z,89.54
2023-08-29T03:17:12.488Z,88.87
2023-08-29T03:19:40.107Z,89.62
2023-08-29T03:22:07.755Z,89.28
2023-08-29T03:24:35.458Z,89.28
2023-08-29T03:27:04.060Z,88.67
2023-08-29T03:29:33.185Z,89.44
2023-08-29T03:32:00.857Z,89.32
2023-08-29T03:34:28.598Z,89.55
2023-08-29T03:36:56.289Z,89.61
2023-08-29T03:39:23.994Z,89.83
2023-08-29T03:41:51.679Z,89.46
2023-08-29T03:44:19.436Z,89.07
2023-08-29T03:46:48.488Z,89.03
2023-08-29T03:49:16.219Z,89.38
2023-08-29T03:51:44.075Z,89.50
2023-08-29T03:54:11.722Z,89.62
2023-08-29T03:56:40.818Z,89.38
2023-08-29T03:59:08.867Z,89.01
2023-08-29T04:01:36.509Z,89.87
2023-08-29T04:04:06.093Z,88.92
2023-08-29T04:06:36.062Z,90.00
2023-08-29T04:09:04.747Z,89.43
2023-08-29T04:11:32.493Z,88.61
2023-08-29T04:14:00.258Z,89.74
2023-08-29T04:16:28.049Z,89.80
2023-08-29T04:18:56.112Z,89.84
2023-08-29T04:21:25.957Z,90.04
2023-08-29T04:23:53.600Z,89.75
2023-08-29T04:26:22.488Z,89.66
2023-08-29T04:28:50.354Z,90.70
2023-08-29T04:31:18.665Z,89.54
2023-08-29T04:33:46.389Z,89.82
2023-08-29T04:36:17.743Z,90.30
2023-08-29T04:38:48.689Z,89.80
2023-08-29T04:41:16.535Z,89.10
2023-08-29T04:43:44.393Z,89.37
2023-08-29T04:46:12.093Z,89.86
2023-08-29T04:48:39.835Z,90.39
2023-08-29T04:51:07.554Z,90.48
2023-08-29T04:53:35.491Z,90.02
2023-08-29T04:56:06.247Z,89.84
2023-08-29T04:58:34.102Z,90.26
2023-08-29T05:01:02.091Z,90.10
2023-08-29T05:03:29.833Z,90.00
2023-08-29T05:05:58.809Z,90.11
2023-08-29T05:08:26.586Z,90.29
2023-08-29T05:10:54.260Z,90.45
2023-08-29T05:13:23.341Z,90.16
2023-08-29T05:15:51.061Z,90.46
2023-08-29T05:18:18.852Z,90.68
2023-08-29T05:20:46.605Z,90.57
2023-08-29T05:23:14.236Z,89.93
2023-08-29T05:25:42.574Z,89.33
2023-08-29T05:28:11.671Z,90.42
2023-08-29T05:30:40.785Z,91.40
2023-08-29T05:33:08.528Z,91.01
2023-08-29T05:35:36.275Z,91.57
2023-08-29T05:38:04.359Z,91.52
2023-08-29T05:40:34.219Z,91.60
2023-08-29T05:43:02.253Z,91.18
2023-08-29T05:45:29.908Z,91.57
2023-08-29T05:47:59.040Z,91.54
2023-08-29T05:50:26.815Z,92.57
2023-08-29T05:52:54.501Z,91.70
2023-08-29T05:55:22.210Z,90.93
2023-08-29T05:57:49.872Z,91.24
2023-08-29T06:00:20.421Z,91.61
2023-08-29T06:02:49.090Z,91.77
2023-08-29T06:05:18.533Z,91.59
2023-08-29T06:07:47.485Z,91.07
2023-08-29T06:10:15.211Z,91.50
2023-08-29T06:12:42.929Z,92.33
2023-08-29T06:15:11.178Z,92.74
2023-08-29T06:17:38.993Z,92.00
2023-08-29T06:20:08.388Z,91.42
2023-08-29T06:22:37.362Z,91.12
2023-08-29T06:25:06.082Z,90.59
2023-08-29T06:27:35.112Z,90.90
2023-08-29T06:30:03.596Z,90.74
2023-08-29T06:32:31.656Z,91.07
2023-08-29T06:34:59.468Z,90.95
2023-08-29T06:37:27.180Z,90.39
2023-08-29T06:39:56.378Z,90.70
2023-08-29T06:42:24.025Z,90.45
2023-08-29T06:44:51.650Z,91.02
2023-08-29T06:47:19.743Z,91.11
2023-08-29T06:49:47.646Z,90.37
2023-08-29T06:52:15.363Z,90.86
2023-08-29T06:54:43.122Z,89.39
2023-08-29T06:57:12.580Z,90.09
2023-08-29T06:59:40.962Z,89.71
2023-08-29T07:02:08.848Z,89.32
2023-08-29T07:04:36.625Z,88.62
2023-08-29T07:07:04.457Z,88.94
2023-08-29T07:09:32.247Z,88.52
2023-08-29T07:12:00.101Z,87.46
2023-08-29T07:14:29.151Z,87.51
2023-08-29T07:17:09.292Z,86.92
2023-08-29T07:19:38.121Z,87.49
2023-08-29T07:22:17.461Z,87.04
2023-08-29T07:24:51.741Z,87.96
2023-08-29T07:27:19.581Z,87.05
2023-08-29T07:29:48.666Z,86.81
2023-08-29T07:32:16.454Z,85.78
2023-08-29T07:34:44.152Z,85.63
2023-08-29T07:37:11.897Z,85.34
2023-08-29T07:39:39.559Z,85.77
2023-08-29T07:42:07.335Z,85.32
2023-08-29T07:44:35.082Z,85.93
2023-08-29T07:47:14.951Z,86.02
2023-08-29T07:49:43.998Z,85.02
2023-08-29T07:52:11.832Z,85.81
2023-08-29T07:54:39.522Z,86.13
2023-08-29T07:57:07.318Z,84.85
2023-08-29T07:59:35.028Z,84.34
2023-08-29T08:02:04.243Z,85.20
2023-08-29T08:04:31.984Z,84.98
2023-08-29T08:06:59.672Z,84.59
2023-08-29T08:09:27.810Z,83.56
2023-08-29T08:11:55.510Z,83.84
2023-08-29T08:14:23.201Z,83.64
2023-08-29T08:16:51.037Z,83.14
2023-08-29T08:19:20.083Z,82.61
2023-08-29T08:21:50.182Z,82.47
2023-08-29T08:24:18.918Z,82.60
2023-08-29T08:26:47.099Z,82.58
2023-08-29T08:29:14.946Z,83.68
2023-08-29T08:31:42.684Z,83.04
2023-08-29T08:34:11.463Z,82.63
2023-08-29T08:36:40.593Z,83.46
2023-08-29T08:39:08.369Z,81.91
2023-08-29T08:41:36.107Z,80.49
2023-08-29T08:44:07.606Z,81.92
2023-08-29T08:46:36.295Z,80.92
2023-08-29T08:49:04.371Z,80.52
2023-08-29T08:51:33.671Z,80.38
2023-08-29T08:54:03.027Z,79.64
2023-08-29T08:56:32.387Z,78.66
2023-08-29T08:59:00.983Z,75.83
2023-08-29T09:01:29.366Z,78.41
2023-08-29T09:03:57.315Z,77.91
2023-08-29T09:06:25.135Z,76.02
2023-08-29T09:08:52.850Z,75.72
2023-08-29T09:11:22.138Z,76.04
2023-08-29T09:13:50.856Z,73.63
2023-08-29T09:16:18.806Z,76.08
2023-08-29T09:18:47.183Z,77.04
2023-08-29T09:21:18.400Z,75.31
2023-08-29T09:23:46.517Z,72.68
2023-08-29T09:26:14.868Z,73.21
2023-08-29T09:28:45.091Z,73.63
2023-08-29T09:31:12.986Z,72.94
2023-08-29T09:33:41.345Z,72.18
2023-08-29T09:36:09.320Z,72.30
2023-08-29T09:38:37.565Z,72.35
2023-08-29T09:41:05.699Z,73.32
2023-08-29T09:43:33.570Z,71.55
2023-08-29T09:46:06.328Z,71.58
2023-08-29T09:48:35.971Z,70.88
2023-08-29T09:51:04.691Z,70.39
2023-08-29T09:53:33.287Z,72.25
2023-08-29T09:56:08.350Z,71.26
2023-08-29T09:58:39.652Z,71.10
2023-08-29T10:01:11.017Z,71.41
2023-08-29T10:03:40.914Z,70.92
2023-08-29T10:06:13.236Z,69.64
2023-08-29T10:08:47.270Z,71.31
2023-08-29T10:11:15.200Z,70.94
2023-08-29T10:13:43.824Z,69.18
2023-08-29T10:16:14.577Z,68.01
2023-08-29T10:18:42.633Z,68.73
2023-08-29T10:21:12.101Z,66.75
2023-08-29T10:23:41.194Z,67.57
2023-08-29T10:26:09.355Z,64.89
2023-08-29T10:28:38.546Z,67.05
2023-08-29T10:31:08.300Z,65.28
2023-08-29T10:33:38.834Z,65.62
2023-08-29T10:36:09.887Z,67.73
2023-08-29T10:38:41.116Z,64.17
2023-08-29T10:41:09.142Z,63.61
2023-08-29T10:43:37.391Z,64.71
2023-08-29T10:46:17.655Z,64.20
2023-08-29T10:48:56.750Z,62.70
2023-08-29T10:51:26.351Z,60.04
2023-08-29T10:53:55.404Z,62.48
2023-08-29T10:56:28.846Z,61.67
2023-08-29T10:58:57.356Z,62.65
2023-08-29T11:01:33.115Z,59.33
2023-08-29T11:04:04.980Z,58.30
2023-08-29T11:06:54.588Z,59.15
2023-08-29T11:09:23.621Z,59.39
2023-08-29T11:12:10.733Z,57.83
2023-08-29T11:14:51.011Z,59.30
2023-08-29T11:17:24.285Z,57.80
2023-08-29T11:19:58.020Z,56.77
2023-08-29T11:22:29.393Z,58.46
2023-08-29T11:24:58.377Z,57.40
2023-08-29T11:27:27.650Z,56.64
2023-08-29T11:30:10.087Z,55.68
2023-08-29T11:32:43.507Z,55.76
2023-08-29T11:35:13.355Z,58.44
2023-08-29T11:37:41.488Z,56.12
2023-08-29T11:40:16.932Z,57.97
2023-08-29T11:43:24.844Z,57.78
2023-08-29T11:45:46.381Z,58.67
2023-08-29T11:48:23.182Z,54.42
2023-08-29T11:50:55.338Z,55.87
2023-08-29T11:53:24.039Z,57.20
2023-08-29T11:55:52.306Z,55.42
2023-08-29T11:58:20.251Z,54.63
2023-08-29T12:00:51.030Z,54.09
2023-08-29T12:03:21.906Z,53.96
2023-08-29T12:05:50.049Z,53.34
2023-08-29T12:08:34.475Z,54.19
2023-08-29T12:11:02.281Z,53.26
2023-08-29T12:13:29.958Z,52.49
2023-08-29T12:15:59.367Z,53.37
2023-08-29T12:18:28.011Z,48.26
2023-08-29T12:21:13.787Z,49.11
2023-08-29T12:23:44.250Z,50.96
2023-08-29T12:26:12.959Z,52.70
2023-08-29T12:28:40.956Z,51.26
2023-08-29T12:31:09.264Z,51.04
2023-08-29T12:33:37.054Z,50.65
2023-08-29T12:36:05.777Z,50.16
2023-08-29T12:38:33.505Z,51.65
2023-08-29T12:41:02.584Z,50.54
2023-08-29T12:43:30.254Z,52.15
2023-08-29T12:46:00.368Z,54.49
2023-08-29T12:48:28.546Z,53.00
2023-08-29T12:50:56.270Z,51.23
2023-08-29T12:53:23.942Z,53.45
2023-08-29T12:55:52.331Z,52.84
2023-08-29T12:58:21.372Z,53.22
2023-08-29T13:00:49.301Z,51.89
2023-08-29T13:03:17.036Z,48.20
2023-08-29T13:05:44.952Z,49.43
2023-08-29T13:08:12.750Z,49.90
2023-08-29T13:10:40.549Z,52.54
2023-08-29T13:13:08.257Z,50.98
2023-08-29T13:15:49.844Z,49.46
2023-08-29T13:18:18.595Z,53.49
2023-08-29T13:20:46.596Z,50.68
2023-08-29T13:23:14.291Z,48.77
2023-08-29T13:25:42.082Z,47.63
2023-08-29T13:28:10.131Z,49.34
2023-08-29T13:30:39.915Z,48.87
2023-08-29T13:33:09.117Z,47.35
2023-08-29T13:35:36.900Z,47.83
2023-08-29T13:38:05.241Z,47.56
2023-08-29T13:40:33.780Z,46.48
2023-08-29T13:43:01.486Z,49.53
2023-08-29T13:45:29.201Z,49.50
2023-08-29T13:47:58.315Z,48.93
2023-08-29T13:50:26.050Z,46.16
2023-08-29T13:52:53.736Z,49.39
2023-08-29T13:55:21.413Z,51.89
2023-08-29T13:57:49.130Z,50.60
2023-08-29T14:00:18.011Z,49.17
2023-08-29T14:02:48.154Z,46.13
2023-08-29T14:05:17.441Z,47.82
2023-08-29T14:07:45.388Z,46.95
2023-08-29T14:10:13.052Z,46.10
2023-08-29T14:12:40.914Z,47.44
2023-08-29T14:15:10.270Z,48.64
2023-08-29T14:17:38.110Z,48.89
2023-08-29T14:20:06.985Z,48.18
2023-08-29T14:22:35.987Z,49.83
2023-08-29T14:25:03.672Z,49.79
2023-08-29T14:27:31.360Z,50.15
2023-08-29T14:29:59.071Z,49.20
2023-08-29T14:32:27.230Z,49.58
2023-08-29T14:34:54.932Z,51.22
2023-08-29T14:37:23.269Z,47.76
2023-08-29T14:39:52.302Z,49.24
2023-08-29T14:42:20.041Z,50.18
2023-08-29T14:44:47.698Z,50.81
2023-08-29T14:47:15.436Z,50.49
2023-08-29T14:49:43.095Z,48.07
2023-08-29T14:52:10.776Z,50.98
2023-08-29T14:54:38.443Z,50.16
2023-08-29T14:57:08.613Z,49.42
2023-08-29T14:59:36.655Z,50.93
2023-08-29T15:02:05.408Z,51.56
2023-08-29T15:04:33.066Z,45.41
2023-08-29T15:07:02.288Z,48.97
2023-08-29T15:09:30.030Z,47.33
2023-08-29T15:11:57.778Z,50.37
2023-08-29T15:14:26.829Z,47.29
2023-08-29T15:16:54.492Z,47.71
2023-08-29T15:19:22.201Z,48.22
2023-08-29T15:21:49.875Z,49.44
2023-08-29T15:24:17.495Z,49.97
2023-08-29T15:26:48.579Z,48.79
2023-08-29T15:29:18.418Z,47.52
2023-08-29T15:31:47.532Z,50.25
2023-08-29T15:34:15.453Z,50.80
2023-08-29T15:36:43.116Z,48.33
2023-08-29T15:39:10.778Z,47.92
2023-08-29T15:41:38.426Z,49.26
2023-08-29T15:44:06.290Z,48.78
2023-08-29T15:46:34.012Z,50.19
2023-08-29T15:49:04.884Z,51.28
2023-08-29T15:51:32.808Z,50.41
2023-08-29T15:54:00.512Z,49.45
2023-08-29T15:56:28.184Z,48.54
2023-08-29T15:58:55.861Z,44.76
2023-08-29T16:01:24.050Z,49.05
2023-08-29T16:03:52.261Z,48.30
2023-08-29T16:06:21.707Z,49.72
2023-08-29T16:08:49.387Z,50.52
2023-08-29T16:11:17.237Z,49.83
2023-08-29T16:13:44.957Z,48.14
2023-08-29T16:16:12.698Z,48.53
2023-08-29T16:18:40.380Z,49.87
2023-08-29T16:21:08.062Z,51.15
2023-08-29T16:23:37.118Z,49.46
2023-08-29T16:26:13.819Z,48.33
2023-08-29T16:28:41.640Z,48.04
2023-08-29T16:31:09.341Z,50.18
2023-08-29T16:33:37.103Z,50.59
2023-08-29T16:36:05.939Z,50.15
2023-08-29T16:38:33.904Z,52.43
2023-08-29T16:41:02.940Z,50.70
2023-08-29T16:43:30.590Z,54.16
2023-08-29T16:45:58.437Z,55.08
2023-08-29T16:48:26.151Z,56.89
2023-08-29T16:50:53.864Z,54.35
2023-08-29T16:53:21.691Z,55.97
2023-08-29T16:55:51.048Z,57.96
2023-08-29T16:58:20.071Z,54.64
2023-08-29T17:00:48.296Z,55.31
2023-08-29T17:03:16.120Z,56.31
2023-08-29T17:05:43.895Z,56.41
2023-08-29T17:08:13.072Z,57.92
2023-08-29T17:10:40.782Z,58.41
2023-08-29T17:13:09.919Z,59.07
2023-08-29T17:15:38.944Z,59.21
2023-08-29T17:18:06.946Z,57.10
2023-08-29T17:20:34.913Z,59.00
2023-08-29T17:23:02.547Z,57.78
2023-08-29T17:25:30.921Z,57.27
2023-08-29T17:27:59.530Z,58.36
2023-08-29T17:30:27.629Z,56.35
2023-08-29T17:32:56.702Z,58.91
2023-08-29T17:35:24.487Z,59.31
2023-08-29T17:37:52.228Z,60.07
2023-08-29T17:40:20.026Z,60.82
2023-08-29T17:42:47.732Z,61.21
2023-08-29T17:45:16.934Z,62.29
2023-08-29T17:47:44.628Z,63.43
2023-08-29T17:50:14.544Z,63.77
2023-08-29T17:52:43.215Z,64.72
2023-08-29T17:55:10.876Z,64.80
2023-08-29T17:57:39.473Z,65.11
2023-08-29T18:00:08.361Z,66.44
2023-08-29T18:02:36.099Z,67.74
2023-08-29T18:05:03.893Z,66.11
2023-08-29T18:07:32.906Z,67.82
2023-08-29T18:10:09.073Z,67.88
2023-08-29T18:12:38.015Z,68.16
2023-08-29T18:15:06.902Z,69.16
2023-08-29T18:17:34.714Z,69.94
2023-08-29T18:20:02.557Z,69.48
2023-08-29T18:22:31.476Z,70.16
2023-08-29T18:25:00.580Z,71.12
2023-08-29T18:27:28.248Z,71.26
2023-08-29T18:29:55.893Z,71.87
2023-08-29T18:32:24.203Z,72.21
2023-08-29T18:34:53.815Z,72.54
2023-08-29T18:37:21.623Z,72.02
2023-08-29T18:39:49.372Z,73.66
2023-08-29T18:42:18.372Z,72.97
2023-08-29T18:44:46.037Z,73.38
2023-08-29T18:47:13.712Z,73.40
2023-08-29T18:49:41.582Z,74.03
2023-08-29T18:52:09.292Z,75.32
2023-08-29T18:54:36.989Z,75.03
2023-08-29T18:57:05.300Z,76.72
2023-08-29T19:02:04.084Z,76.57
2023-08-29T19:04:32.402Z,77.51
2023-08-29T19:07:00.941Z,77.45
2023-08-29T19:09:28.924Z,78.68
2023-08-29T19:11:57.239Z,77.58
2023-08-29T19:14:27.070Z,77.60
2023-08-29T19:17:02.071Z,77.79
2023-08-29T19:19:30.717Z,77.54
2023-08-29T19:21:58.892Z,78.48
2023-08-29T19:24:26.920Z,78.76
2023-08-29T19:26:55.064Z,79.56
2023-08-29T19:29:23.655Z,79.02
2023-08-29T19:31:51.890Z,78.74
2023-08-29T19:34:21.491Z,78.81
2023-08-29T19:36:49.889Z,78.70
2023-08-29T19:39:18.729Z,79.21
2023-08-29T19:41:46.756Z,79.53
2023-08-29T19:44:17.279Z,80.18
2023-08-29T19:46:45.390Z,79.18
2023-08-29T19:49:13.560Z,80.44
2023-08-29T19:51:43.714Z,80.48
2023-08-29T19:54:11.465Z,79.59
2023-08-29T19:56:39.256Z,79.87
2023-08-29T19:59:07.742Z,79.72
2023-08-29T20:01:35.462Z,78.75
2023-08-29T20:04:04.075Z,78.80
2023-08-29T20:06:31.833Z,77.89
2023-08-29T20:09:01.542Z,77.90
2023-08-29T20:11:29.676Z,79.42
2023-08-29T20:13:58.085Z,79.54
2023-08-29T20:16:26.616Z,79.34
2023-08-29T20:18:55.556Z,79.48
2023-08-29T20:21:23.713Z,80.53
2023-08-29T20:24:01.999Z,79.59
2023-08-29T20:26:32.307Z,79.55
2023-08-29T20:29:01.156Z,78.13
2023-08-29T20:31:28.983Z,78.18
2023-08-29T20:33:56.760Z,78.39
2023-08-29T20:36:24.445Z,78.39
2023-08-29T20:38:52.284Z,79.64
2023-08-29T20:41:19.997Z,79.62
2023-08-29T20:43:49.114Z,79.79
2023-08-29T20:46:16.842Z,80.19
2023-08-29T20:48:46.965Z,80.29
2023-08-29T20:51:14.747Z,80.03
2023-08-29T20:53:42.494Z,81.61
2023-08-29T20:56:10.287Z,81.39
2023-08-29T20:58:38.306Z,81.87
2023-08-29T21:01:07.463Z,81.18
2023-08-29T21:03:35.463Z,82.28
2023-08-29T21:06:03.225Z,82.35
2023-08-29T21:08:31.422Z,82.50
2023-08-29T21:10:59.149Z,81.53
2023-08-29T21:13:26.910Z,82.86
2023-08-29T21:15:54.647Z,82.07
2023-08-29T21:18:23.751Z,83.30
2023-08-29T21:20:53.129Z,82.34
2023-08-29T21:23:20.957Z,82.84
2023-08-29T21:25:49.422Z,83.73
2023-08-29T21:28:17.768Z,83.47
2023-08-29T21:30:46.096Z,83.44
2023-08-29T21:33:14.536Z,83.00
2023-08-29T21:35:45.056Z,83.71
2023-08-29T21:38:13.543Z,83.41
2023-08-29T21:40:43.088Z,83.26
2023-08-29T21:43:12.856Z,84.26
2023-08-29T21:45:41.237Z,83.39
2023-08-29T21:48:11.560Z,83.79
2023-08-29T21:50:39.955Z,83.52
2023-08-29T21:53:10.098Z,83.21
2023-08-29T21:55:38.898Z,83.92
2023-08-29T21:58:07.829Z,83.38
2023-08-29T22:00:36.181Z,82.76
2023-08-29T22:03:04.908Z,83.80
2023-08-29T22:05:33.986Z,83.83
2023-08-29T22:08:01.886Z,84.22
2023-08-29T22:10:32.274Z,84.56
2023-08-29T22:13:00.959Z,84.20
2023-08-29T22:15:28.705Z,83.88
2023-08-29T22:17:56.430Z,84.18
2023-08-29T22:20:24.288Z,84.37
2023-08-29T22:22:53.289Z,84.46
2023-08-29T22:25:21.194Z,83.50
2023-08-29T22:27:50.322Z,83.36
2023-08-29T22:30:18.564Z,84.23
2023-08-29T22:32:46.257Z,83.97
2023-08-29T22:35:14.004Z,83.67
2023-08-29T22:37:41.655Z,83.57
2023-08-29T22:40:10.863Z,84.16
2023-08-29T22:42:38.563Z,84.86
2023-08-29T22:45:08.597Z,84.88
2023-08-29T22:47:36.370Z,84.57
2023-08-29T22:50:04.161Z,85.05
2023-08-29T22:52:31.866Z,83.92
2023-08-29T22:54:59.620Z,83.16
2023-08-29T22:57:27.427Z,82.86
2023-08-29T22:59:55.099Z,82.49
2023-08-29T23:02:24.981Z,82.93
2023-08-29T23:04:52.754Z,82.08
2023-08-29T23:07:22.989Z,82.21
2023-08-29T23:09:50.927Z,82.34
2023-08-29T23:12:18.685Z,82.54
2023-08-29T23:14:46.337Z,82.26
2023-08-29T23:17:14.027Z,81.62
2023-08-29T23:19:45.149Z,82.06
2023-08-29T23:22:13.144Z,81.51
2023-08-29T23:24:40.947Z,81.56
2023-08-29T23:27:08.699Z,82.20
2023-08-29T23:29:37.204Z,82.77
2023-08-29T23:32:05.846Z,82.18
2023-08-29T23:34:33.789Z,82.65
2023-08-29T23:37:02.886Z,82.05
2023-08-29T23:39:30.572Z,82.25
2023-08-29T23:42:00.508Z,82.48
2023-08-29T23:44:28.276Z,82.26
2023-08-29T23:46:57.262Z,82.26
2023-08-29T23:49:25.054Z,82.78
2023-08-29T23:51:52.732Z,83.62
2023-08-29T23:54:21.820Z,83.65
2023-08-29T23:56:49.495Z,83.47
2023-08-29T23:59:17.325Z,83.15
